Terminal Aerodrome Forecast
Issued by NWS

Home | Current Version | Previous Version | Text Only | Print | Product List | Glossary On
Versions: 1 2 3 4 5 6 7 8 9 10 11 12 13 14 15 16 17 18
000
FTPA31 PHFO 252325
TAFHMK
TAF
PHMK 252325Z 2600/2624 04016G25KT P6SM SCT020 SCT040
     FM260500 04010G16KT P6SM FEW020 SCT040
     FM261900 04013G20KT P6SM VCSH SCT020
      AMD NOT SKED=

USA.gov is the U.S. government's official web portal to all federal, state and local government web resources and services.